Time;durP1;ratioP1;P1;durP2;ratioP2;P2;SDS_P1;SDS_P2;PMS_P1;PMS_P2;Temp;Humidity;BMP_temperature;BMP_pressure;BME280_temperature;BME280_humidity;BME280_pressure;Samples;Min_cycle;Max_cycle;Signal;HPM_P1;HPM_P2
2022/12/24 00:01:42;;;;;;;;;;;;;;;9.47;100.00;100556.78;4900891;29;19999;-62
2022/12/24 00:04:07;;;;;;;;;;;;;;;9.75;100.00;100551.56;4894364;29;19973;-63
2022/12/24 00:06:33;;;;;;;;;;;;;;;9.46;100.00;100563.34;4895690;29;19922;-63
2022/12/24 00:08:58;;;;;;;;;;;;;;;9.42;100.00;100560.22;4892893;29;19991;-63
2022/12/24 00:11:23;;;;;;;;;;;;;;;9.60;100.00;100556.63;4894641;29;19959;-63
2022/12/24 00:13:48;;;;;;;;;;;;;;;9.46;100.00;100566.91;4894510;29;19962;-64
2022/12/24 00:16:13;;;;;;;;;;;;;;;9.41;100.00;100568.69;4895553;29;19931;-63
2022/12/24 00:18:39;;;;;;;;;;;;;;;9.35;100.00;100571.28;4894258;29;19922;-63
2022/12/24 00:21:05;;;;;;;;;;;;;;;9.41;100.00;100576.91;4896144;29;20010;-63
2022/12/24 00:23:30;;;;;;;;;;;;;;;9.27;100.00;100585.28;4908397;29;19947;-63
2022/12/24 00:25:56;;;;;;;;;;;;;;;9.22;100.00;100581.53;4904348;29;19919;-63
2022/12/24 00:28:21;;;;;;;;;;;;;;;9.53;100.00;100577.78;4911865;29;20306;-62
2022/12/24 00:30:47;;;;;;;;;;;;;;;9.25;100.00;100587.41;4912317;29;19919;-63
2022/12/24 00:33:12;;;;;;;;;;;;;;;9.24;100.00;100593.97;4896538;29;19926;-63
2022/12/24 00:35:38;;;;;;;;;;;;;;;9.26;100.00;100597.31;4911544;29;20311;-62
2022/12/24 00:38:03;;;;;;;;;;;;;;;9.34;100.00;100601.66;4913534;29;20318;-63
2022/12/24 00:40:29;;;;;;;;;;;;;;;9.23;100.00;100599.69;4909058;29;20007;-63
2022/12/24 00:42:54;;;;;;;;;;;;;;;9.35;100.00;100620.59;4902657;29;19915;-62
2022/12/24 00:45:19;;;;;;;;;;;;;;;9.34;100.00;100616.19;4900878;29;20370;-63
2022/12/24 00:47:45;;;;;;;;;;;;;;;9.35;100.00;100626.09;4912809;29;19996;-63
2022/12/24 00:50:10;;;;;;;;;;;;;;;9.39;100.00;100610.03;4913071;29;20547;-63
2022/12/24 00:52:35;;;;;;;;;;;;;;;9.38;100.00;100610.25;4913241;29;19915;-64
2022/12/24 00:55:00;;;;;;;;;;;;;;;9.32;100.00;100626.53;4901361;29;19927;-62
2022/12/24 00:57:25;;;;;;;;;;;;;;;9.33;100.00;100621.91;4894215;29;20006;-63
2022/12/24 00:59:51;;;;;;;;;;;;;;;9.28;100.00;100644.53;4898102;29;19930;-63
2022/12/24 01:02:16;;;;;;;;;;;;;;;9.27;100.00;100640.09;4902804;29;20339;-63
2022/12/24 01:07:25;;;;;;;;;;;;;;;9.31;100.00;100640.47;4912180;29;19992;-61
2022/12/24 01:09:50;;;;;;;;;;;;;;;9.27;100.00;100645.56;4891990;29;19931;-63
2022/12/24 01:12:15;;;;;;;;;;;;;;;9.35;100.00;100648.00;4907698;29;19927;-63
2022/12/24 01:14:41;;;;;;;;;;;;;;;9.41;100.00;100645.44;4912719;29;20278;-63
2022/12/24 01:17:06;;;;;;;;;;;;;;;9.27;100.00;100652.94;4912845;29;19962;-63
2022/12/24 01:19:32;;;;;;;;;;;;;;;9.26;100.00;100651.28;4904798;29;20011;-62
2022/12/24 01:21:57;;;;;;;;;;;;;;;9.22;100.00;100655.53;4893346;29;19912;-62
2022/12/24 01:24:22;;;;;;;;;;;;;;;9.39;100.00;100664.03;4901952;29;19947;-62
2022/12/24 01:26:47;;;;;;;;;;;;;;;9.25;100.00;100664.16;4911389;29;19927;-63
2022/12/24 01:29:12;;;;;;;;;;;;;;;9.11;100.00;100665.34;4911433;29;20342;-62
2022/12/24 01:31:37;;;;;;;;;;;;;;;9.26;100.00;100675.94;4902133;29;19919;-63
2022/12/24 01:34:03;;;;;;;;;;;;;;;9.14;100.00;100672.28;4901029;29;19919;-63
2022/12/24 01:36:28;;;;;;;;;;;;;;;9.25;100.00;100669.63;4911986;29;19941;-63
2022/12/24 01:38:53;;;;;;;;;;;;;;;9.06;100.00;100676.97;4899329;29;19920;-62
2022/12/24 01:44:21;;;;;;;;;;;;;;;9.00;100.00;100685.25;4913345;29;19965;-63
2022/12/24 01:46:47;;;;;;;;;;;;;;;8.93;100.00;100693.53;4902272;29;19963;-63
2022/12/24 01:49:13;;;;;;;;;;;;;;;8.94;100.00;100688.91;4893506;29;19915;-62
2022/12/24 01:51:38;;;;;;;;;;;;;;;8.91;100.00;100695.66;4907015;29;19915;-63
2022/12/24 01:54:06;;;;;;;;;;;;;;;8.87;100.00;100699.06;4912909;29;19939;-62
2022/12/24 01:56:32;;;;;;;;;;;;;;;8.84;100.00;100701.19;4912555;29;19923;-63
2022/12/24 01:59:01;;;;;;;;;;;;;;;8.87;100.00;100705.41;4912496;29;19966;-62
2022/12/24 02:01:26;;;;;;;;;;;;;;;8.84;100.00;100705.81;4902414;29;19919;-63
2022/12/24 02:03:51;;;;;;;;;;;;;;;8.92;100.00;100715.66;4902330;29;19919;-63
2022/12/24 02:06:18;;;;;;;;;;;;;;;9.08;100.00;100723.34;4911993;29;19978;-63
2022/12/24 02:11:19;;;;;;;;;;;;;;;8.97;100.00;100726.78;4889657;29;20027;-62
2022/12/24 02:13:47;;;;;;;;;;;;;;;9.00;100.00;100721.69;4890253;29;20414;-63
2022/12/24 02:16:23;;;;;;;;;;;;;;;8.99;100.00;100725.50;4892282;29;19922;-62
2022/12/24 02:18:56;;;;;;;;;;;;;;;8.98;100.00;100728.47;4873349;29;19951;-62
2022/12/24 02:21:21;;;;;;;;;;;;;;;9.03;100.00;100728.66;4889926;29;19920;-63
2022/12/24 02:23:46;;;;;;;;;;;;;;;9.03;100.00;100728.66;4892205;29;20392;-62
2022/12/24 02:26:20;;;;;;;;;;;;;;;9.00;100.00;100726.34;4891122;29;19978;-63
2022/12/24 02:29:04;;;;;;;;;;;;;;;8.99;100.00;100720.03;4891246;29;20388;-63
2022/12/24 02:31:32;;;;;;;;;;;;;;;9.12;100.00;100724.53;4890247;29;20544;-63
2022/12/24 02:34:24;;;;;;;;;;;;;;;9.13;100.00;100734.47;4891191;29;19930;-63
2022/12/24 02:36:56;;;;;;;;;;;;;;;9.06;100.00;100734.50;4893714;29;19977;-63
2022/12/24 02:39:27;;;;;;;;;;;;;;;9.09;100.00;100735.97;4887613;29;20256;-63
2022/12/24 02:42:06;;;;;;;;;;;;;;;9.08;100.00;100739.78;4894759;29;19923;-63
2022/12/24 02:44:35;;;;;;;;;;;;;;;9.09;100.00;100734.06;4894886;29;19927;-62
2022/12/24 02:47:01;;;;;;;;;;;;;;;9.09;100.00;100738.72;4895535;29;19926;-63
2022/12/24 02:49:27;;;;;;;;;;;;;;;9.14;100.00;100741.63;4895711;29;20584;-63
2022/12/24 02:51:52;;;;;;;;;;;;;;;9.22;100.00;100746.78;4895266;29;20363;-63
2022/12/24 02:54:17;;;;;;;;;;;;;;;9.18;100.00;100750.25;4896633;29;19922;-63
2022/12/24 02:57:01;;;;;;;;;;;;;;;9.14;100.00;100752.56;4894644;29;19915;-62
2022/12/24 02:59:59;;;;;;;;;;;;;;;9.12;100.00;100754.69;4895813;29;19966;-63
2022/12/24 03:02:46;;;;;;;;;;;;;;;9.14;100.00;100752.56;4857107;29;19919;-63
2022/12/24 03:05:30;;;;;;;;;;;;;;;9.14;100.00;100744.34;4894957;29;19919;-62
2022/12/24 03:07:55;;;;;;;;;;;;;;;9.20;100.00;100743.44;4892698;29;20372;-62
2022/12/24 03:10:28;;;;;;;;;;;;;;;9.11;100.00;100753.00;4895045;29;20014;-63
2022/12/24 03:13:05;;;;;;;;;;;;;;;9.11;100.00;100750.28;4892068;29;19927;-63
2022/12/24 03:15:31;;;;;;;;;;;;;;;9.14;100.00;100749.84;4895233;29;19926;-63
2022/12/24 03:17:58;;;;;;;;;;;;;;;9.28;100.00;100751.41;4894611;29;19927;-63
2022/12/24 03:20:25;;;;;;;;;;;;;;;9.20;100.00;100751.69;4895233;29;19926;-63
2022/12/24 03:22:50;;;;;;;;;;;;;;;9.19;100.00;100749.16;4895408;29;19915;-63
2022/12/24 03:25:16;;;;;;;;;;;;;;;9.18;100.00;100753.81;4894296;29;19945;-63
2022/12/24 03:27:42;;;;;;;;;;;;;;;9.19;100.00;100758.22;4893573;29;20290;-62
2022/12/24 03:30:10;;;;;;;;;;;;;;;9.28;100.00;100756.06;4895431;29;20299;-63
2022/12/24 03:32:35;;;;;;;;;;;;;;;9.28;100.00;100751.41;4895015;29;20474;-63
2022/12/24 03:35:01;;;;;;;;;;;;;;;9.26;100.00;100766.38;4879854;29;19931;-63
2022/12/24 03:37:26;;;;;;;;;;;;;;;9.26;100.00;100764.47;4893394;29;19926;-63
2022/12/24 03:39:51;;;;;;;;;;;;;;;9.27;100.00;100762.56;4893936;29;20022;-63
2022/12/24 03:42:17;;;;;;;;;;;;;;;9.31;100.00;100767.38;4895195;29;20006;-63
2022/12/24 03:44:42;;;;;;;;;;;;;;;9.22;100.00;100765.97;4893596;29;19935;-63
2022/12/24 03:47:07;;;;;;;;;;;;;;;9.23;100.00;100764.09;4892491;29;20268;-62
2022/12/24 03:49:32;;;;;;;;;;;;;;;9.23;100.00;100764.09;4894631;29;20002;-63
2022/12/24 03:51:57;;;;;;;;;;;;;;;9.33;100.00;100765.28;4894055;29;20443;-62
2022/12/24 03:54:23;;;;;;;;;;;;;;;9.44;100.00;100771.91;4895290;29;19922;-63
2022/12/24 03:56:48;;;;;;;;;;;;;;;9.34;100.00;100761.47;4893624;29;19941;-63
2022/12/24 03:59:14;;;;;;;;;;;;;;;9.33;100.00;100770.75;4893831;29;20381;-63
2022/12/24 04:01:39;;;;;;;;;;;;;;;9.39;100.00;100784.63;4893311;29;19919;-63
2022/12/24 04:04:04;;;;;;;;;;;;;;;9.47;100.00;100771.44;4894800;29;20282;-63
2022/12/24 04:06:29;;;;;;;;;;;;;;;9.47;100.00;100776.09;4894114;29;19915;-63
2022/12/24 04:08:55;;;;;;;;;;;;;;;9.57;100.00;100781.91;4893096;29;19920;-62
2022/12/24 04:11:20;;;;;;;;;;;;;;;9.49;100.00;100774.81;4893716;29;19927;-63
2022/12/24 04:13:45;;;;;;;;;;;;;;;9.56;100.00;100777.50;4891225;29;19983;-64
2022/12/24 04:16:12;;;;;;;;;;;;;;;9.54;100.00;100779.63;4894666;29;20705;-63
2022/12/24 04:18:38;;;;;;;;;;;;;;;9.53;100.00;100786.16;4891875;29;19923;-62
2022/12/24 04:21:03;;;;;;;;;;;;;;;9.55;100.00;100795.00;4894996;29;20358;-63
2022/12/24 04:23:30;;;;;;;;;;;;;;;9.60;100.00;100797.91;4893401;29;20030;-63
2022/12/24 04:25:57;;;;;;;;;;;;;;;9.66;100.00;100791.53;4889529;29;19998;-63
2022/12/24 04:28:22;;;;;;;;;;;;;;;9.62;100.00;100795.78;4890787;29;20259;-64
2022/12/24 04:30:47;;;;;;;;;;;;;;;9.73;100.00;100796.94;4894220;29;19920;-63
2022/12/24 04:33:13;;;;;;;;;;;;;;;9.70;100.00;100798.25;4892940;29;19919;-63
2022/12/24 04:35:39;;;;;;;;;;;;;;;9.66;100.00;100802.50;4892949;29;19919;-63
2022/12/24 04:38:04;;;;;;;;;;;;;;;9.62;100.00;100798.53;4893858;29;19931;-63
2022/12/24 04:40:29;;;;;;;;;;;;;;;9.60;100.00;100801.50;4893733;29;19919;-63
2022/12/24 04:42:55;;;;;;;;;;;;;;;9.64;100.00;100801.06;4894111;29;19915;-63
2022/12/24 04:45:20;;;;;;;;;;;;;;;9.82;100.00;100801.06;4892583;29;19958;-64
2022/12/24 04:47:45;;;;;;;;;;;;;;;9.66;100.00;100802.50;4893178;29;19933;-63
2022/12/24 04:50:10;;;;;;;;;;;;;;;9.72;100.00;100798.00;4894153;29;20397;-63
2022/12/24 04:52:35;;;;;;;;;;;;;;;9.86;100.00;100816.84;4893452;29;19919;-62
2022/12/24 04:55:01;;;;;;;;;;;;;;;9.67;100.00;100809.66;4892135;29;19930;-63
2022/12/24 04:57:27;;;;;;;;;;;;;;;9.57;100.00;100815.63;4893191;29;19970;-63
2022/12/24 04:59:52;;;;;;;;;;;;;;;9.57;100.00;100806.59;4893363;29;19919;-62
2022/12/24 05:02:17;;;;;;;;;;;;;;;9.48;100.00;100805.19;4893215;29;19926;-63
2022/12/24 05:04:42;;;;;;;;;;;;;;;9.51;100.00;100812.97;4892196;29;19910;-63
2022/12/24 05:07:07;;;;;;;;;;;;;;;9.58;100.00;100808.28;4892231;29;20023;-63
2022/12/24 05:09:33;;;;;;;;;;;;;;;9.54;100.00;100818.00;4892695;29;19920;-64
2022/12/24 05:11:58;;;;;;;;;;;;;;;9.55;100.00;100819.69;4893252;29;19954;-63
2022/12/24 05:14:23;;;;;;;;;;;;;;;9.62;100.00;100823.19;4892830;29;19987;-63
2022/12/24 05:16:48;;;;;;;;;;;;;;;9.55;100.00;100828.75;4891889;29;19926;-63
2022/12/24 05:19:13;;;;;;;;;;;;;;;9.62;100.00;100820.44;4892705;29;19927;-64
2022/12/24 05:21:38;;;;;;;;;;;;;;;9.67;100.00;100825.25;4891634;29;19919;-63
2022/12/24 05:26:49;;;;;;;;;;;;;;;9.72;100.00;100814.47;4892447;29;20414;-63
2022/12/24 05:29:14;;;;;;;;;;;;;;;9.57;100.00;100812.91;4894001;29;19916;-63
2022/12/24 05:31:40;;;;;;;;;;;;;;;9.55;100.00;100812.28;4893612;29;20070;-64
2022/12/24 05:34:06;;;;;;;;;;;;;;;9.51;100.00;100818.44;4891325;29;20271;-63
2022/12/24 05:36:31;;;;;;;;;;;;;;;9.56;100.00;100827.69;4890385;29;19923;-63
2022/12/24 05:38:57;;;;;;;;;;;;;;;9.68;100.00;100822.31;4891800;29;20286;-63
2022/12/24 05:41:22;;;;;;;;;;;;;;;9.61;100.00;100821.53;4892731;29;20548;-63
2022/12/24 05:43:48;;;;;;;;;;;;;;;9.47;100.00;100822.69;4890722;29;19930;-63
2022/12/24 05:46:14;;;;;;;;;;;;;;;9.50;100.00;100828.59;4893196;29;20282;-63
2022/12/24 05:48:40;;;;;;;;;;;;;;;9.48;100.00;100833.47;4878358;29;19931;-63
2022/12/24 05:51:06;;;;;;;;;;;;;;;9.43;100.00;100825.06;4892384;29;20244;-63
2022/12/24 05:53:32;;;;;;;;;;;;;;;9.44;100.00;100834.97;4891476;29;20309;-63
2022/12/24 05:56:07;;;;;;;;;;;;;;;9.42;100.00;100844.47;4890148;29;19923;-64
2022/12/24 05:58:33;;;;;;;;;;;;;;;9.44;100.00;100853.31;4892326;29;20358;-63
2022/12/24 06:00:59;;;;;;;;;;;;;;;9.58;100.00;100854.91;4889743;29;19920;-62
2022/12/24 06:03:24;;;;;;;;;;;;;;;9.53;100.00;100855.56;4887695;29;19971;-64
2022/12/24 06:05:56;;;;;;;;;;;;;;;9.66;100.00;100862.00;4890219;29;20629;-63
2022/12/24 06:08:21;;;;;;;;;;;;;;;9.71;100.00;100864.91;4890024;29;19924;-64
2022/12/24 06:10:52;;;;;;;;;;;;;;;9.60;100.00;100867.31;4889910;29;20268;-63
2022/12/24 06:13:17;;;;;;;;;;;;;;;9.66;100.00;100867.47;4891927;29;19916;-64
2022/12/24 06:15:43;;;;;;;;;;;;;;;9.46;100.00;100862.16;4888936;29;19919;-64
2022/12/24 06:18:08;;;;;;;;;;;;;;;9.49;100.00;100867.19;4889118;29;20371;-61
2022/12/24 06:20:33;;;;;;;;;;;;;;;9.56;100.00;100863.31;4887658;29;20292;-63
2022/12/24 06:22:58;;;;;;;;;;;;;;;9.54;100.00;100872.84;4877928;29;19958;-63
2022/12/24 06:25:23;;;;;;;;;;;;;;;9.52;100.00;100873.06;4889669;29;20296;-63
2022/12/24 06:27:48;;;;;;;;;;;;;;;9.53;100.00;100868.41;4887375;29;19926;-63
2022/12/24 06:30:14;;;;;;;;;;;;;;;9.45;100.00;100866.78;4889731;29;20365;-62
2022/12/24 06:32:39;;;;;;;;;;;;;;;9.60;100.00;100878.28;4889334;29;20350;-63
2022/12/24 06:35:04;;;;;;;;;;;;;;;9.61;100.00;100882.69;4890036;29;19928;-63
2022/12/24 06:37:29;;;;;;;;;;;;;;;9.49;100.00;100886.38;4884735;29;20387;-64
2022/12/24 06:39:55;;;;;;;;;;;;;;;9.52;100.00;100892.25;4889431;29;20359;-63
2022/12/24 06:42:20;;;;;;;;;;;;;;;9.60;100.00;100885.66;4889938;29;19920;-64
2022/12/24 06:44:45;;;;;;;;;;;;;;;9.76;100.00;100893.31;4890965;29;20310;-63
2022/12/24 06:47:10;;;;;;;;;;;;;;;9.61;100.00;100890.91;4889718;29;19919;-63
2022/12/24 06:49:35;;;;;;;;;;;;;;;9.55;100.00;100897.28;4889882;29;19919;-63
2022/12/24 06:52:00;;;;;;;;;;;;;;;9.61;100.00;100899.13;4888617;29;19981;-63
2022/12/24 06:54:26;;;;;;;;;;;;;;;9.61;100.00;100893.66;4890255;29;20393;-63
2022/12/24 06:56:51;;;;;;;;;;;;;;;9.57;100.00;100895.16;4889478;29;19923;-64
2022/12/24 06:59:16;;;;;;;;;;;;;;;9.54;100.00;100886.56;4890834;29;19939;-63
2022/12/24 07:01:41;;;;;;;;;;;;;;;9.44;100.00;100891.69;4887897;29;19919;-64
2022/12/24 07:04:06;;;;;;;;;;;;;;;9.50;100.00;100899.03;4889886;29;19920;-63
2022/12/24 07:06:32;;;;;;;;;;;;;;;9.48;100.00;100903.88;4888986;29;19956;-63
2022/12/24 07:08:57;;;;;;;;;;;;;;;9.43;100.00;100909.19;4888739;29;19923;-63
2022/12/24 07:11:23;;;;;;;;;;;;;;;9.47;100.00;100907.69;4887946;29;19926;-63
2022/12/24 07:13:48;;;;;;;;;;;;;;;9.37;100.00;100908.16;4890881;29;20014;-62
2022/12/24 07:16:14;;;;;;;;;;;;;;;9.42;100.00;100915.72;4890281;29;20446;-63
2022/12/24 07:18:39;;;;;;;;;;;;;;;9.54;100.00;100920.31;4872955;29;20014;-64
2022/12/24 07:21:06;;;;;;;;;;;;;;;9.32;100.00;100922.53;4892966;29;20355;-63
2022/12/24 07:23:31;;;;;;;;;;;;;;;9.33;100.00;100924.25;4893454;29;20298;-63
2022/12/24 07:26:00;;;;;;;;;;;;;;;9.26;100.00;100919.84;4891769;29;19924;-63
2022/12/24 07:28:25;;;;;;;;;;;;;;;9.21;100.00;100926.00;4891162;29;19931;-64
2022/12/24 07:30:50;;;;;;;;;;;;;;;9.31;100.00;100918.13;4892744;29;19911;-63
2022/12/24 07:33:16;;;;;;;;;;;;;;;9.20;100.00;100927.06;4890525;29;20025;-63
2022/12/24 07:35:41;;;;;;;;;;;;;;;9.14;100.00;100930.69;4891948;29;19923;-64
2022/12/24 07:38:06;;;;;;;;;;;;;;;9.13;100.00;100941.88;4891413;29;19920;-64
2022/12/24 07:40:33;;;;;;;;;;;;;;;9.14;100.00;100947.13;4892430;29;20385;-63
2022/12/24 07:42:58;;;;;;;;;;;;;;;8.95;100.00;100948.88;4891142;29;19938;-64
2022/12/24 07:45:23;;;;;;;;;;;;;;;8.96;100.00;100957.94;4894297;29;19923;-62
2022/12/24 07:47:48;;;;;;;;;;;;;;;8.88;100.00;100959.03;4893007;29;19958;-64
2022/12/24 07:50:13;;;;;;;;;;;;;;;8.95;100.00;100959.00;4895246;29;19990;-64
2022/12/24 07:52:38;;;;;;;;;;;;;;;8.95;100.00;100959.00;4891864;29;19920;-64
2022/12/24 07:55:04;;;;;;;;;;;;;;;8.86;100.00;100969.34;4895016;29;19999;-64
2022/12/24 07:57:29;;;;;;;;;;;;;;;8.77;100.00;100968.78;4893156;29;19912;-64
2022/12/24 07:59:54;;;;;;;;;;;;;;;8.81;100.00;100985.59;4893094;29;19923;-63
2022/12/24 08:02:19;;;;;;;;;;;;;;;8.78;100.00;100995.09;4891043;29;20392;-64
2022/12/24 08:04:45;;;;;;;;;;;;;;;8.79;100.00;100999.50;4891673;29;19922;-64
2022/12/24 08:07:10;;;;;;;;;;;;;;;8.97;100.00;101003.44;4892553;29;19915;-63
2022/12/24 08:09:36;;;;;;;;;;;;;;;9.08;100.00;101003.63;4893307;29;19919;-63
2022/12/24 08:12:01;;;;;;;;;;;;;;;8.94;100.00;101004.72;4892265;29;20081;-64
2022/12/24 08:14:30;;;;;;;;;;;;;;;9.15;100.00;101014.56;4893168;29;20283;-64
2022/12/24 08:16:56;;;;;;;;;;;;;;;9.00;100.00;101013.97;4889926;29;19923;-64
2022/12/24 08:19:21;;;;;;;;;;;;;;;9.15;100.00;101030.16;4893144;29;19920;-64
2022/12/24 08:21:46;;;;;;;;;;;;;;;9.04;100.00;101035.25;4891462;29;19968;-64
2022/12/24 08:24:11;;;;;;;;;;;;;;;9.14;100.00;101032.06;4891726;29;19971;-64
2022/12/24 08:26:37;;;;;;;;;;;;;;;9.17;100.00;101028.88;4892374;29;19967;-64
2022/12/24 08:29:03;;;;;;;;;;;;;;;9.18;100.00;101041.53;4892832;29;20342;-61
2022/12/24 08:31:28;;;;;;;;;;;;;;;9.18;100.00;101041.53;4892246;29;20294;-64
2022/12/24 08:33:53;;;;;;;;;;;;;;;9.22;100.00;101039.19;4890429;29;19967;-64
2022/12/24 08:36:19;;;;;;;;;;;;;;;9.19;100.00;101048.69;4892442;29;19919;-64
2022/12/24 08:38:44;;;;;;;;;;;;;;;9.30;100.00;101050.75;4891355;29;19916;-63
2022/12/24 08:41:09;;;;;;;;;;;;;;;9.44;100.00;101039.75;4892684;29;19915;-64
2022/12/24 08:43:34;;;;;;;;;;;;;;;9.29;100.00;101048.22;4892286;29;19915;-64
2022/12/24 08:46:03;;;;;;;;;;;;;;;9.35;100.00;101047.34;4891699;29;19916;-64
2022/12/24 08:48:29;;;;;;;;;;;;;;;9.35;100.00;101053.69;4891507;29;19919;-64
2022/12/24 08:50:54;;;;;;;;;;;;;;;9.36;100.00;101062.75;4891979;29;19915;-66
2022/12/24 08:53:19;;;;;;;;;;;;;;;9.49;100.00;101057.22;4891198;29;20070;-64
2022/12/24 08:55:44;;;;;;;;;;;;;;;9.52;100.00;101061.41;4891949;29;20290;-64
2022/12/24 08:58:09;;;;;;;;;;;;;;;9.49;100.00;101068.19;4891795;29;20335;-66
2022/12/24 09:00:36;;;;;;;;;;;;;;;9.66;100.00;101076.72;4892754;29;19922;-63
2022/12/24 09:03:02;;;;;;;;;;;;;;;9.65;100.00;101075.06;4890846;29;19915;-63
2022/12/24 09:05:27;;;;;;;;;;;;;;;9.77;100.00;101078.78;4891595;29;19942;-64
2022/12/24 09:07:53;;;;;;;;;;;;;;;9.93;100.00;101071.91;4890819;29;19922;-63
2022/12/24 09:10:18;;;;;;;;;;;;;;;10.02;100.00;101073.34;4891468;29;19926;-62
2022/12/24 09:12:43;;;;;;;;;;;;;;;9.98;100.00;101084.97;4891010;29;19922;-63
2022/12/24 09:15:08;;;;;;;;;;;;;;;10.00;100.00;101088.34;4891161;29;19934;-63
2022/12/24 09:17:34;;;;;;;;;;;;;;;10.15;100.00;101094.38;4890759;29;20053;-63
2022/12/24 09:19:59;;;;;;;;;;;;;;;10.46;100.00;101098.19;4891245;29;20272;-64
2022/12/24 09:22:24;;;;;;;;;;;;;;;10.61;100.00;101090.44;4890974;29;19916;-64
2022/12/24 09:24:52;;;;;;;;;;;;;;;10.84;100.00;101103.53;4891143;29;20094;-63
2022/12/24 09:27:17;;;;;;;;;;;;;;;10.74;100.00;101112.28;4891273;29;19925;-61
2022/12/24 09:29:42;;;;;;;;;;;;;;;10.62;100.00;101123.19;4891073;29;20002;-63
2022/12/24 09:32:07;;;;;;;;;;;;;;;10.49;100.00;101127.94;4890078;29;19915;-63
2022/12/24 09:34:32;;;;;;;;;;;;;;;10.32;100.00;101128.47;4890122;29;19959;-63
2022/12/24 09:36:59;;;;;;;;;;;;;;;10.22;100.00;101130.84;4890542;29;19922;-64
2022/12/24 09:39:24;;;;;;;;;;;;;;;10.28;100.00;101129.13;4891057;29;19923;-64
2022/12/24 09:41:58;;;;;;;;;;;;;;;10.17;100.00;101136.16;4890847;29;19919;-63
2022/12/24 09:44:26;;;;;;;;;;;;;;;10.10;100.00;101138.94;4891162;29;19926;-64
2022/12/24 09:46:52;;;;;;;;;;;;;;;10.21;100.00;101140.16;4889970;29;19942;-63
2022/12/24 09:49:21;;;;;;;;;;;;;;;10.22;100.00;101147.31;4891214;29;20322;-64
2022/12/24 09:51:48;;;;;;;;;;;;;;;10.34;100.00;101139.22;4890172;29;20116;-64
2022/12/24 09:54:19;;;;;;;;;;;;;;;10.49;100.00;101138.91;4890881;29;19915;-64
2022/12/24 09:56:45;;;;;;;;;;;;;;;10.51;100.00;101145.03;4890693;29;19922;-64
2022/12/24 09:59:13;;;;;;;;;;;;;;;10.46;100.00;101150.38;4890773;29;20330;-63
2022/12/24 10:01:38;;;;;;;;;;;;;;;10.61;100.00;101156.38;4889726;29;19922;-64
2022/12/24 10:04:08;;;;;;;;;;;;;;;10.84;100.00;101156.56;4891243;29;19911;-63
2022/12/24 10:06:39;;;;;;;;;;;;;;;11.18;100.00;101166.19;4890577;29;19951;-63
2022/12/24 10:09:15;;;;;;;;;;;;;;;11.61;100.00;101161.72;4903538;29;20366;-64
2022/12/24 10:11:46;;;;;;;;;;;;;;;11.56;100.00;101169.84;4909154;29;19942;-63
2022/12/24 10:14:14;;;;;;;;;;;;;;;11.54;100.00;101170.03;4909526;29;19915;-63
2022/12/24 10:16:48;;;;;;;;;;;;;;;11.62;100.00;101168.91;4908683;29;19930;-62
2022/12/24 10:19:20;;;;;;;;;;;;;;;12.17;100.00;101163.34;4909612;29;20074;-64
2022/12/24 10:21:52;;;;;;;;;;;;;;;12.50;100.00;101164.75;4908935;29;19915;-63
2022/12/24 10:24:23;;;;;;;;;;;;;;;13.14;99.72;101149.28;4909268;29;19929;-62
2022/12/24 10:26:57;;;;;;;;;;;;;;;13.77;97.70;101149.28;4901347;29;20363;-64
2022/12/24 10:29:26;;;;;;;;;;;;;;;14.74;95.33;101142.84;4890586;29;19939;-63
2022/12/24 10:31:54;;;;;;;;;;;;;;;15.05;85.90;101140.56;4889537;29;19927;-63
2022/12/24 10:34:21;;;;;;;;;;;;;;;14.83;88.58;101146.03;4890404;29;20247;-63
2022/12/24 10:36:47;;;;;;;;;;;;;;;14.14;89.32;101148.06;4889616;29;19915;-63
2022/12/24 10:39:25;;;;;;;;;;;;;;;13.41;92.65;101153.22;4890462;29;19929;-63
2022/12/24 10:41:52;;;;;;;;;;;;;;;12.75;96.30;101159.91;4890373;29;19919;-64
2022/12/24 10:44:19;;;;;;;;;;;;;;;12.28;97.90;101173.56;4890900;29;19959;-63
2022/12/24 10:46:45;;;;;;;;;;;;;;;11.92;100.00;101164.31;4889952;29;20318;-63
2022/12/24 10:49:36;;;;;;;;;;;;;;;11.73;100.00;101173.63;4890279;29;19981;-63
2022/12/24 10:52:04;;;;;;;;;;;;;;;11.60;100.00;101165.53;4885834;29;19923;-64
2022/12/24 10:54:37;;;;;;;;;;;;;;;11.55;100.00;101168.13;4890103;29;19922;-63
2022/12/24 10:57:03;;;;;;;;;;;;;;;11.45;100.00;101168.66;4893731;29;19979;-64
2022/12/24 10:59:28;;;;;;;;;;;;;;;11.35;100.00;101171.09;4894107;29;19912;-62
2022/12/24 11:01:55;;;;;;;;;;;;;;;11.40;100.00;101166.63;4892106;29;19915;-63
2022/12/24 11:04:31;;;;;;;;;;;;;;;11.68;100.00;101168.81;4893770;29;19920;-64
2022/12/24 11:06:58;;;;;;;;;;;;;;;11.66;100.00;101161.88;4892718;29;20290;-64
2022/12/24 11:09:28;;;;;;;;;;;;;;;11.55;100.00;101179.13;4893755;29;19916;-63
2022/12/24 11:11:54;;;;;;;;;;;;;;;11.42;100.00;101180.97;4893688;29;19923;-63
2022/12/24 11:14:20;;;;;;;;;;;;;;;11.46;100.00;101183.28;4893531;29;19923;-64
2022/12/24 11:16:49;;;;;;;;;;;;;;;11.30;100.00;101171.78;4892909;29;20275;-62
2022/12/24 11:19:17;;;;;;;;;;;;;;;11.10;100.00;101171.13;4893936;29;19915;-63
2022/12/24 11:21:42;;;;;;;;;;;;;;;11.16;100.00;101176.59;4893054;29;20409;-63
2022/12/24 11:24:22;;;;;;;;;;;;;;;11.09;100.00;101173.03;4893528;29;20010;-63
2022/12/24 11:26:48;;;;;;;;;;;;;;;10.98;100.00;101183.94;4893103;29;19915;-63
2022/12/24 11:29:26;;;;;;;;;;;;;;;10.90;100.00;101182.34;4893728;29;19912;-64
2022/12/24 11:31:51;;;;;;;;;;;;;;;10.92;100.00;101177.44;4892406;29;19947;-63
2022/12/24 11:34:31;;;;;;;;;;;;;;;10.95;100.00;101187.13;4893802;29;20385;-63
2022/12/24 11:37:26;;;;;;;;;;;;;;;11.06;100.00;101189.16;4893017;29;20045;-63
2022/12/24 11:39:53;;;;;;;;;;;;;;;10.87;100.00;101191.84;4884411;29;20327;-64
2022/12/24 11:42:27;;;;;;;;;;;;;;;10.88;100.00;101200.94;4892884;29;20421;-62
2022/12/24 11:44:53;;;;;;;;;;;;;;;10.86;100.00;101198.44;4893457;29;20374;-63
2022/12/24 11:47:30;;;;;;;;;;;;;;;10.84;100.00;101199.69;4892683;29;20366;-63
2022/12/24 11:50:15;;;;;;;;;;;;;;;10.88;100.00;101188.03;4893054;29;19919;-64
2022/12/24 11:52:41;;;;;;;;;;;;;;;10.88;100.00;101185.28;4892438;29;19916;-64
2022/12/24 11:55:23;;;;;;;;;;;;;;;11.00;100.00;101192.78;4906667;29;20004;-64
2022/12/24 11:57:53;;;;;;;;;;;;;;;11.13;99.25;101195.44;4912049;29;20224;-64
2022/12/24 12:00:18;;;;;;;;;;;;;;;11.07;99.53;101188.94;4911949;29;19922;-63
2022/12/24 12:02:46;;;;;;;;;;;;;;;11.07;99.37;101193.59;4899759;29;19912;-64
2022/12/24 12:05:20;;;;;;;;;;;;;;;10.95;99.37;101192.63;4892040;29;19978;-64
2022/12/24 12:07:49;;;;;;;;;;;;;;;10.91;99.35;101184.00;4891167;29;20013;-64
2022/12/24 12:10:23;;;;;;;;;;;;;;;10.74;99.92;101197.44;4894090;29;19919;-62
2022/12/24 12:12:55;;;;;;;;;;;;;;;10.77;100.00;101197.00;4890484;29;19923;-63
2022/12/24 12:15:22;;;;;;;;;;;;;;;10.79;100.00;101196.78;4890512;29;19919;-63
2022/12/24 12:17:55;;;;;;;;;;;;;;;10.87;100.00;101202.84;4892161;29;19919;-63
2022/12/24 12:20:35;;;;;;;;;;;;;;;10.90;100.00;101205.16;4893933;29;19919;-63
2022/12/24 12:23:04;;;;;;;;;;;;;;;11.02;100.00;101215.41;4900499;29;19926;-62
2022/12/24 12:25:32;;;;;;;;;;;;;;;11.11;99.08;101201.16;4895417;29;20002;-64
2022/12/24 12:27:59;;;;;;;;;;;;;;;11.03;100.00;101204.19;4891410;29;19923;-63
2022/12/24 12:30:25;;;;;;;;;;;;;;;11.01;99.26;101217.34;4890398;29;19919;-63
2022/12/24 12:32:55;;;;;;;;;;;;;;;11.24;97.41;101216.69;4892358;29;19942;-63
2022/12/24 12:35:24;;;;;;;;;;;;;;;10.99;98.79;101211.19;4892664;29;20014;-63
2022/12/24 12:37:53;;;;;;;;;;;;;;;11.06;98.79;101202.91;4898912;29;19955;-63
2022/12/24 12:40:18;;;;;;;;;;;;;;;11.28;97.69;101206.91;4895300;29;19973;-64
2022/12/24 12:42:51;;;;;;;;;;;;;;;11.37;96.37;101208.31;4900785;29;19943;-64
2022/12/24 12:45:38;;;;;;;;;;;;;;;11.33;95.93;101212.56;4903729;29;19919;-64
2022/12/24 12:48:03;;;;;;;;;;;;;;;11.20;97.08;101220.94;4889312;29;19916;-64